IBS8V GCTS-GCXO
Flight info
| Callsign | IBS8V |
|---|---|
| Flight time | 0h 12m |
| Altitude | 12000 |
| Route | COSSE |
| Aircraft | A320/M-SDE3FGHIRWY/LB1 |
Departure
| Time | 2026-04-23 10:01 |
|---|---|
| Airport | Tenerife Sur Airport (GCTS) |
Arrival
| Time | 2026-04-23 10:14 |
|---|---|
| Airport | Tenerife Norte-Ciudad de La Laguna Airport (GCXO) |
| Time | Latitude | Longitude | Altitude | Speed | Heading |
|---|---|---|---|---|---|
| 2026-04-23 09:33 | 28.04777 | -16.57504 | 227 ft | 0 kts | 10° |
| 2026-04-23 09:51 | 28.04775 | -16.57505 | 226 ft | 2 kts | 10° |
| 2026-04-23 09:51 | 28.04750 | -16.57509 | 226 ft | 4 kts | 6° |
| 2026-04-23 09:51 | 28.04727 | -16.57511 | 228 ft | 2 kts | 353° |
| 2026-04-23 09:52 | 28.04704 | -16.57505 | 227 ft | 4 kts | 321° |
| 2026-04-23 09:52 | 28.04694 | -16.57483 | 228 ft | 4 kts | 257° |
| 2026-04-23 09:52 | 28.04698 | -16.57470 | 225 ft | 0 kts | 245° |
| 2026-04-23 09:55 | 28.04693 | -16.57481 | 226 ft | 5 kts | 245° |
| 2026-04-23 09:55 | 28.04678 | -16.57517 | 224 ft | 5 kts | 244° |
| 2026-04-23 09:56 | 28.04664 | -16.57555 | 226 ft | 9 kts | 249° |
| 2026-04-23 09:56 | 28.04641 | -16.57624 | 224 ft | 9 kts | 249° |
| 2026-04-23 09:56 | 28.04616 | -16.57689 | 225 ft | 9 kts | 235° |
| 2026-04-23 09:56 | 28.04545 | -16.57691 | 224 ft | 15 kts | 157° |
| 2026-04-23 09:57 | 28.04478 | -16.57687 | 223 ft | 6 kts | 255° |
| 2026-04-23 09:57 | 28.04456 | -16.57755 | 224 ft | 11 kts | 248° |
| 2026-04-23 09:57 | 28.04448 | -16.57776 | 223 ft | 12 kts | 247° |
| 2026-04-23 09:57 | 28.04420 | -16.57858 | 225 ft | 13 kts | 248° |
| 2026-04-23 09:58 | 28.04413 | -16.57876 | 224 ft | 14 kts | 248° |
| 2026-04-23 09:58 | 28.04375 | -16.57984 | 224 ft | 16 kts | 248° |
| 2026-04-23 09:58 | 28.04332 | -16.58106 | 225 ft | 18 kts | 248° |
| 2026-04-23 09:58 | 28.04283 | -16.58245 | 223 ft | 20 kts | 248° |
| 2026-04-23 09:59 | 28.04230 | -16.58399 | 223 ft | 22 kts | 249° |
| 2026-04-23 09:59 | 28.04179 | -16.58568 | 223 ft | 23 kts | 249° |
| 2026-04-23 09:59 | 28.04113 | -16.58758 | 216 ft | 29 kts | 248° |
| 2026-04-23 09:59 | 28.04056 | -16.58924 | 214 ft | 20 kts | 249° |
| 2026-04-23 10:00 | 28.03982 | -16.58994 | 213 ft | 15 kts | 163° |
| 2026-04-23 10:00 | 28.03903 | -16.58876 | 203 ft | 21 kts | 112° |
| 2026-04-23 10:00 | 28.03904 | -16.58807 | 200 ft | 0 kts | 69° |
| 2026-04-23 10:00 | 28.03908 | -16.58795 | 204 ft | 9 kts | 69° |
| 2026-04-23 10:01 | 28.04020 | -16.58475 | 206 ft | 83 kts | 68° |
| 2026-04-23 10:01 | 28.04317 | -16.57623 | 190 ft | 146 kts | 69° |
| 2026-04-23 10:01 | 28.04585 | -16.56845 | 396 ft | 159 kts | 71° |
| 2026-04-23 10:01 | 28.04971 | -16.55661 | 1078 ft | 162 kts | 71° |
| 2026-04-23 10:02 | 28.05371 | -16.54451 | 1717 ft | 170 kts | 69° |
| 2026-04-23 10:02 | 28.05833 | -16.53145 | 2085 ft | 193 kts | 68° |
| 2026-04-23 10:02 | 28.06371 | -16.51632 | 2440 ft | 217 kts | 68° |
| 2026-04-23 10:02 | 28.06966 | -16.49955 | 2880 ft | 242 kts | 68° |
| 2026-04-23 10:03 | 28.07615 | -16.48111 | 3543 ft | 259 kts | 68° |
| 2026-04-23 10:03 | 28.08285 | -16.46192 | 4460 ft | 265 kts | 67° |
| 2026-04-23 10:03 | 28.08966 | -16.44223 | 5380 ft | 271 kts | 69° |
| 2026-04-23 10:03 | 28.09639 | -16.42195 | 6246 ft | 279 kts | 69° |
| 2026-04-23 10:04 | 28.10314 | -16.40103 | 7051 ft | 287 kts | 69° |
| 2026-04-23 10:04 | 28.10992 | -16.37987 | 7897 ft | 291 kts | 69° |
| 2026-04-23 10:04 | 28.11690 | -16.35805 | 8698 ft | 298 kts | 70° |
| 2026-04-23 10:04 | 28.12410 | -16.33553 | 9070 ft | 306 kts | 70° |
| 2026-04-23 10:05 | 28.13172 | -16.31302 | 9100 ft | 306 kts | 62° |
| 2026-04-23 10:05 | 28.14418 | -16.29375 | 9031 ft | 302 kts | 40° |
| 2026-04-23 10:05 | 28.16111 | -16.27994 | 8910 ft | 300 kts | 31° |
| 2026-04-23 10:05 | 28.17858 | -16.26696 | 8783 ft | 299 kts | 31° |
| 2026-04-23 10:06 | 28.19598 | -16.25407 | 8662 ft | 298 kts | 31° |
| 2026-04-23 10:06 | 28.21336 | -16.24117 | 8538 ft | 298 kts | 31° |
| 2026-04-23 10:06 | 28.23059 | -16.22835 | 8416 ft | 293 kts | 31° |
| 2026-04-23 10:06 | 28.24731 | -16.21589 | 8289 ft | 281 kts | 31° |
| 2026-04-23 10:07 | 28.26329 | -16.20396 | 8164 ft | 269 kts | 31° |
| 2026-04-23 10:07 | 28.27862 | -16.19254 | 8021 ft | 259 kts | 31° |
| 2026-04-23 10:07 | 28.29387 | -16.18117 | 7449 ft | 268 kts | 31° |
| 2026-04-23 10:07 | 28.30954 | -16.16952 | 7096 ft | 267 kts | 32° |
| 2026-04-23 10:08 | 28.32469 | -16.15820 | 6861 ft | 252 kts | 32° |
| 2026-04-23 10:08 | 28.33894 | -16.14754 | 6739 ft | 240 kts | 32° |
| 2026-04-23 10:08 | 28.35242 | -16.13746 | 6632 ft | 230 kts | 31° |
| 2026-04-23 10:09 | 28.38159 | -16.12803 | 6122 ft | 217 kts | 355° |
| 2026-04-23 10:09 | 28.39610 | -16.13144 | 5692 ft | 207 kts | 336° |
| 2026-04-23 10:09 | 28.40808 | -16.13922 | 5482 ft | 190 kts | 320° |
| 2026-04-23 10:09 | 28.41690 | -16.14957 | 5291 ft | 177 kts | 304° |
| 2026-04-23 10:10 | 28.42271 | -16.16143 | 5081 ft | 166 kts | 290° |
| 2026-04-23 10:10 | 28.42665 | -16.17321 | 4879 ft | 153 kts | 290° |
| 2026-04-23 10:10 | 28.43045 | -16.18460 | 4689 ft | 157 kts | 290° |
| 2026-04-23 10:10 | 28.43434 | -16.19625 | 4473 ft | 157 kts | 290° |
| 2026-04-23 10:11 | 28.43808 | -16.20750 | 4258 ft | 146 kts | 291° |
| 2026-04-23 10:11 | 28.44156 | -16.21794 | 4072 ft | 137 kts | 291° |
| 2026-04-23 10:11 | 28.44487 | -16.22788 | 3892 ft | 136 kts | 291° |
| 2026-04-23 10:11 | 28.44822 | -16.23794 | 3714 ft | 135 kts | 291° |
| 2026-04-23 10:12 | 28.45152 | -16.24787 | 3530 ft | 134 kts | 292° |
| 2026-04-23 10:12 | 28.45479 | -16.25771 | 3344 ft | 132 kts | 292° |
| 2026-04-23 10:12 | 28.45803 | -16.26751 | 3171 ft | 133 kts | 292° |
| 2026-04-23 10:12 | 28.46129 | -16.27734 | 2990 ft | 132 kts | 292° |
| 2026-04-23 10:13 | 28.46460 | -16.28716 | 2818 ft | 134 kts | 293° |
| 2026-04-23 10:13 | 28.46789 | -16.29707 | 2581 ft | 135 kts | 292° |
| 2026-04-23 10:13 | 28.47116 | -16.30706 | 2416 ft | 134 kts | 292° |
| 2026-04-23 10:13 | 28.47443 | -16.31695 | 2216 ft | 135 kts | 292° |
| 2026-04-23 10:14 | 28.47781 | -16.32697 | 2046 ft | 134 kts | 292° |
| 2026-04-23 10:14 | 28.48065 | -16.33548 | 2041 ft | 94 kts | 290° |
| 2026-04-23 10:14 | 28.48235 | -16.34062 | 2054 ft | 48 kts | 290° |
| 2026-04-23 10:14 | 28.48342 | -16.34379 | 2062 ft | 38 kts | 292° |
| 2026-04-23 10:15 | 28.48428 | -16.34636 | 2072 ft | 31 kts | 290° |
| 2026-04-23 10:15 | 28.48497 | -16.34848 | 2082 ft | 26 kts | 291° |
| 2026-04-23 10:15 | 28.48556 | -16.35026 | 2089 ft | 23 kts | 291° |
| 2026-04-23 10:15 | 28.48626 | -16.35191 | 2086 ft | 24 kts | 303° |
| 2026-04-23 10:16 | 28.48711 | -16.35317 | 2081 ft | 13 kts | 329° |
| 2026-04-23 10:16 | 28.48754 | -16.35280 | 2079 ft | 8 kts | 96° |
| 2026-04-23 10:16 | 28.48739 | -16.35228 | 2078 ft | 7 kts | 111° |
| 2026-04-23 10:16 | 28.48719 | -16.35171 | 2081 ft | 8 kts | 111° |
| 2026-04-23 10:17 | 28.48700 | -16.35110 | 2082 ft | 8 kts | 110° |
| 2026-04-23 10:17 | 28.48678 | -16.35042 | 2083 ft | 10 kts | 109° |
| 2026-04-23 10:17 | 28.48665 | -16.34965 | 2083 ft | 11 kts | 79° |
| 2026-04-23 10:17 | 28.48708 | -16.34875 | 2075 ft | 11 kts | 58° |
| 2026-04-23 10:18 | 28.48725 | -16.34842 | 2076 ft | 2 kts | 60° |
| 2026-04-23 10:18 | 28.48730 | -16.34832 | 2072 ft | 0 kts | 60° |